sensor_id;sensor_type;location;lat;lon;timestamp;P1;durP1;ratioP1;P2;durP2;ratioP2
43823;SDS011;29470;53.550;9.926;2023-03-01T00:00:05;10.20;;;6.30;;
43823;SDS011;29470;53.550;9.926;2023-03-01T00:05:11;13.55;;;7.00;;
43823;SDS011;29470;53.550;9.926;2023-03-01T00:10:14;10.85;;;5.93;;
43823;SDS011;29470;53.550;9.926;2023-03-01T00:15:18;12.48;;;5.95;;
43823;SDS011;29470;53.550;9.926;2023-03-01T00:20:21;11.48;;;5.93;;
43823;SDS011;29470;53.550;9.926;2023-03-01T00:25:24;14.27;;;6.72;;
43823;SDS011;29470;53.550;9.926;2023-03-01T00:30:29;13.82;;;6.78;;
43823;SDS011;29470;53.550;9.926;2023-03-01T00:35:31;13.98;;;7.05;;
43823;SDS011;29470;53.550;9.926;2023-03-01T00:40:35;16.45;;;6.80;;
43823;SDS011;29470;53.550;9.926;2023-03-01T00:45:39;13.65;;;6.28;;
43823;SDS011;29470;53.550;9.926;2023-03-01T00:50:42;14.07;;;6.70;;
43823;SDS011;29470;53.550;9.926;2023-03-01T00:55:44;12.65;;;7.18;;
43823;SDS011;29470;53.550;9.926;2023-03-01T01:00:49;10.85;;;6.43;;
43823;SDS011;29470;53.550;9.926;2023-03-01T01:05:51;13.77;;;6.90;;
43823;SDS011;29470;53.550;9.926;2023-03-01T01:10:55;13.52;;;7.15;;
43823;SDS011;29470;53.550;9.926;2023-03-01T01:16:01;12.85;;;6.95;;
43823;SDS011;29470;53.550;9.926;2023-03-01T01:21:05;15.43;;;6.95;;
43823;SDS011;29470;53.550;9.926;2023-03-01T01:26:10;11.35;;;6.32;;
43823;SDS011;29470;53.550;9.926;2023-03-01T01:31:17;11.85;;;6.13;;
43823;SDS011;29470;53.550;9.926;2023-03-01T01:36:20;10.05;;;5.63;;
43823;SDS011;29470;53.550;9.926;2023-03-01T01:41:23;9.52;;;5.75;;
43823;SDS011;29470;53.550;9.926;2023-03-01T01:46:29;10.63;;;6.10;;
43823;SDS011;29470;53.550;9.926;2023-03-01T01:51:35;10.75;;;5.43;;
43823;SDS011;29470;53.550;9.926;2023-03-01T01:56:41;10.63;;;4.70;;
43823;SDS011;29470;53.550;9.926;2023-03-01T02:01:51;8.88;;;4.60;;
43823;SDS011;29470;53.550;9.926;2023-03-01T02:06:55;8.63;;;4.20;;
43823;SDS011;29470;53.550;9.926;2023-03-01T02:12:03;8.13;;;4.22;;
43823;SDS011;29470;53.550;9.926;2023-03-01T02:17:09;5.95;;;3.80;;
43823;SDS011;29470;53.550;9.926;2023-03-01T02:22:14;7.25;;;3.83;;
43823;SDS011;29470;53.550;9.926;2023-03-01T02:27:25;7.13;;;3.53;;
43823;SDS011;29470;53.550;9.926;2023-03-01T02:32:35;5.65;;;3.28;;
43823;SDS011;29470;53.550;9.926;2023-03-01T02:37:38;4.82;;;3.15;;
43823;SDS011;29470;53.550;9.926;2023-03-01T02:42:43;6.45;;;3.20;;
43823;SDS011;29470;53.550;9.926;2023-03-01T02:47:54;7.18;;;3.40;;
43823;SDS011;29470;53.550;9.926;2023-03-01T02:53:00;5.85;;;3.60;;
43823;SDS011;29470;53.550;9.926;2023-03-01T02:58:05;6.55;;;3.40;;
43823;SDS011;29470;53.550;9.926;2023-03-01T03:03:10;6.15;;;3.40;;
43823;SDS011;29470;53.550;9.926;2023-03-01T03:08:15;6.25;;;3.03;;
43823;SDS011;29470;53.550;9.926;2023-03-01T03:13:25;6.07;;;3.17;;
43823;SDS011;29470;53.550;9.926;2023-03-01T03:18:31;6.47;;;3.45;;
43823;SDS011;29470;53.550;9.926;2023-03-01T03:23:34;7.38;;;3.88;;
43823;SDS011;29470;53.550;9.926;2023-03-01T03:28:37;7.95;;;3.50;;
43823;SDS011;29470;53.550;9.926;2023-03-01T03:33:42;5.75;;;3.20;;
43823;SDS011;29470;53.550;9.926;2023-03-01T03:38:45;5.60;;;2.78;;
43823;SDS011;29470;53.550;9.926;2023-03-01T03:43:48;6.68;;;3.33;;
43823;SDS011;29470;53.550;9.926;2023-03-01T03:48:52;5.80;;;2.85;;
43823;SDS011;29470;53.550;9.926;2023-03-01T03:53:55;6.30;;;2.83;;
43823;SDS011;29470;53.550;9.926;2023-03-01T03:58:58;6.38;;;3.28;;
43823;SDS011;29470;53.550;9.926;2023-03-01T04:04:02;6.13;;;3.13;;
43823;SDS011;29470;53.550;9.926;2023-03-01T04:09:05;7.07;;;3.42;;
43823;SDS011;29470;53.550;9.926;2023-03-01T04:14:09;5.25;;;2.80;;
43823;SDS011;29470;53.550;9.926;2023-03-01T04:19:13;7.50;;;2.70;;
43823;SDS011;29470;53.550;9.926;2023-03-01T04:24:16;5.65;;;3.13;;
43823;SDS011;29470;53.550;9.926;2023-03-01T04:29:19;5.38;;;2.72;;
43823;SDS011;29470;53.550;9.926;2023-03-01T04:34:23;5.95;;;2.65;;
43823;SDS011;29470;53.550;9.926;2023-03-01T04:39:28;5.30;;;2.60;;
43823;SDS011;29470;53.550;9.926;2023-03-01T04:44:30;4.90;;;2.80;;
43823;SDS011;29470;53.550;9.926;2023-03-01T04:49:34;5.80;;;2.95;;
43823;SDS011;29470;53.550;9.926;2023-03-01T04:54:37;4.80;;;2.42;;
43823;SDS011;29470;53.550;9.926;2023-03-01T04:59:40;4.32;;;2.35;;
43823;SDS011;29470;53.550;9.926;2023-03-01T05:04:44;5.78;;;2.97;;
43823;SDS011;29470;53.550;9.926;2023-03-01T05:09:47;7.75;;;3.60;;
43823;SDS011;29470;53.550;9.926;2023-03-01T05:14:50;5.35;;;2.70;;
43823;SDS011;29470;53.550;9.926;2023-03-01T05:19:54;5.43;;;2.80;;
43823;SDS011;29470;53.550;9.926;2023-03-01T05:25:00;9.38;;;3.20;;
43823;SDS011;29470;53.550;9.926;2023-03-01T05:30:03;6.68;;;2.90;;
43823;SDS011;29470;53.550;9.926;2023-03-01T05:35:16;4.95;;;2.78;;
43823;SDS011;29470;53.550;9.926;2023-03-01T05:40:21;6.93;;;3.10;;
43823;SDS011;29470;53.550;9.926;2023-03-01T05:45:26;4.72;;;2.90;;
43823;SDS011;29470;53.550;9.926;2023-03-01T05:50:31;6.80;;;3.25;;
43823;SDS011;29470;53.550;9.926;2023-03-01T05:55:36;5.20;;;2.95;;
43823;SDS011;29470;53.550;9.926;2023-03-01T06:00:40;6.35;;;3.10;;
43823;SDS011;29470;53.550;9.926;2023-03-01T06:05:45;6.13;;;3.25;;
43823;SDS011;29470;53.550;9.926;2023-03-01T06:10:48;6.47;;;3.38;;
43823;SDS011;29470;53.550;9.926;2023-03-01T06:15:50;7.00;;;3.70;;
43823;SDS011;29470;53.550;9.926;2023-03-01T06:20:55;6.50;;;3.03;;
43823;SDS011;29470;53.550;9.926;2023-03-01T06:25:58;7.90;;;3.95;;
43823;SDS011;29470;53.550;9.926;2023-03-01T06:31:02;6.65;;;3.85;;
43823;SDS011;29470;53.550;9.926;2023-03-01T06:36:11;7.47;;;3.63;;
43823;SDS011;29470;53.550;9.926;2023-03-01T06:41:14;6.95;;;3.85;;
43823;SDS011;29470;53.550;9.926;2023-03-01T06:46:17;9.18;;;3.50;;
43823;SDS011;29470;53.550;9.926;2023-03-01T06:51:21;8.48;;;3.95;;
43823;SDS011;29470;53.550;9.926;2023-03-01T06:56:24;10.77;;;6.70;;
43823;SDS011;29470;53.550;9.926;2023-03-01T07:01:27;11.57;;;6.40;;
43823;SDS011;29470;53.550;9.926;2023-03-01T07:06:32;9.65;;;5.45;;
43823;SDS011;29470;53.550;9.926;2023-03-01T07:11:35;10.93;;;5.10;;
43823;SDS011;29470;53.550;9.926;2023-03-01T07:16:38;8.73;;;4.10;;
43823;SDS011;29470;53.550;9.926;2023-03-01T07:21:42;11.75;;;5.03;;
43823;SDS011;29470;53.550;9.926;2023-03-01T07:26:47;10.25;;;4.63;;
43823;SDS011;29470;53.550;9.926;2023-03-01T07:31:50;10.32;;;5.10;;
43823;SDS011;29470;53.550;9.926;2023-03-01T07:36:55;8.65;;;4.72;;
43823;SDS011;29470;53.550;9.926;2023-03-01T07:41:58;8.38;;;4.78;;
43823;SDS011;29470;53.550;9.926;2023-03-01T07:47:01;11.60;;;5.47;;
43823;SDS011;29470;53.550;9.926;2023-03-01T07:52:05;25.60;;;8.02;;
43823;SDS011;29470;53.550;9.926;2023-03-01T07:57:08;12.98;;;5.30;;
43823;SDS011;29470;53.550;9.926;2023-03-01T08:02:10;12.52;;;5.82;;
43823;SDS011;29470;53.550;9.926;2023-03-01T08:07:15;12.02;;;5.95;;
43823;SDS011;29470;53.550;9.926;2023-03-01T08:12:17;11.75;;;5.88;;
43823;SDS011;29470;53.550;9.926;2023-03-01T08:17:20;13.30;;;7.20;;
43823;SDS011;29470;53.550;9.926;2023-03-01T08:22:24;15.45;;;7.50;;
43823;SDS011;29470;53.550;9.926;2023-03-01T08:27:27;14.50;;;7.88;;
43823;SDS011;29470;53.550;9.926;2023-03-01T08:32:32;18.83;;;8.55;;
43823;SDS011;29470;53.550;9.926;2023-03-01T08:37:39;15.60;;;8.65;;
43823;SDS011;29470;53.550;9.926;2023-03-01T08:42:42;15.93;;;9.05;;
43823;SDS011;29470;53.550;9.926;2023-03-01T08:47:45;16.88;;;8.80;;
43823;SDS011;29470;53.550;9.926;2023-03-01T08:52:49;17.70;;;9.50;;
43823;SDS011;29470;53.550;9.926;2023-03-01T08:57:52;15.05;;;8.90;;
43823;SDS011;29470;53.550;9.926;2023-03-01T09:02:55;15.10;;;8.73;;
43823;SDS011;29470;53.550;9.926;2023-03-01T09:07:59;18.08;;;8.52;;
43823;SDS011;29470;53.550;9.926;2023-03-01T09:13:02;17.05;;;8.90;;
43823;SDS011;29470;53.550;9.926;2023-03-01T09:18:05;14.60;;;8.20;;
43823;SDS011;29470;53.550;9.926;2023-03-01T09:23:09;17.33;;;9.73;;
43823;SDS011;29470;53.550;9.926;2023-03-01T09:28:12;17.30;;;8.45;;
43823;SDS011;29470;53.550;9.926;2023-03-01T09:33:30;21.45;;;10.02;;
43823;SDS011;29470;53.550;9.926;2023-03-01T09:38:35;17.42;;;10.10;;
43823;SDS011;29470;53.550;9.926;2023-03-01T09:43:41;16.70;;;9.63;;
43823;SDS011;29470;53.550;9.926;2023-03-01T09:48:49;20.35;;;9.82;;
43823;SDS011;29470;53.550;9.926;2023-03-01T09:53:56;20.10;;;9.53;;
43823;SDS011;29470;53.550;9.926;2023-03-01T09:59:02;20.42;;;10.93;;
43823;SDS011;29470;53.550;9.926;2023-03-01T10:04:23;19.88;;;10.65;;
43823;SDS011;29470;53.550;9.926;2023-03-01T10:09:32;18.00;;;9.88;;
43823;SDS011;29470;53.550;9.926;2023-03-01T10:14:38;18.02;;;9.90;;
43823;SDS011;29470;53.550;9.926;2023-03-01T10:19:47;18.52;;;9.70;;
43823;SDS011;29470;53.550;9.926;2023-03-01T10:24:51;22.58;;;9.38;;
43823;SDS011;29470;53.550;9.926;2023-03-01T10:29:56;17.65;;;8.90;;
43823;SDS011;29470;53.550;9.926;2023-03-01T10:35:21;16.80;;;8.57;;
43823;SDS011;29470;53.550;9.926;2023-03-01T10:40:27;13.68;;;8.70;;
43823;SDS011;29470;53.550;9.926;2023-03-01T10:45:32;18.83;;;8.80;;
43823;SDS011;29470;53.550;9.926;2023-03-01T10:50:37;20.95;;;9.57;;
43823;SDS011;29470;53.550;9.926;2023-03-01T10:55:44;19.10;;;10.35;;
43823;SDS011;29470;53.550;9.926;2023-03-01T11:00:47;18.42;;;9.63;;
43823;SDS011;29470;53.550;9.926;2023-03-01T11:05:54;18.33;;;9.18;;
43823;SDS011;29470;53.550;9.926;2023-03-01T11:11:14;15.88;;;8.05;;
43823;SDS011;29470;53.550;9.926;2023-03-01T11:16:22;15.30;;;7.78;;
43823;SDS011;29470;53.550;9.926;2023-03-01T11:21:35;16.48;;;8.20;;
43823;SDS011;29470;53.550;9.926;2023-03-01T11:26:43;14.98;;;7.95;;
43823;SDS011;29470;53.550;9.926;2023-03-01T11:31:49;12.68;;;7.22;;
43823;SDS011;29470;53.550;9.926;2023-03-01T11:36:58;17.02;;;7.32;;
43823;SDS011;29470;53.550;9.926;2023-03-01T11:42:09;13.23;;;6.78;;
43823;SDS011;29470;53.550;9.926;2023-03-01T11:47:22;12.85;;;7.00;;
43823;SDS011;29470;53.550;9.926;2023-03-01T11:52:44;12.15;;;5.72;;
43823;SDS011;29470;53.550;9.926;2023-03-01T11:57:59;11.18;;;5.15;;
43823;SDS011;29470;53.550;9.926;2023-03-01T12:03:25;4.95;;;2.33;;
43823;SDS011;29470;53.550;9.926;2023-03-01T12:08:33;6.55;;;3.72;;
43823;SDS011;29470;53.550;9.926;2023-03-01T12:13:54;10.25;;;4.78;;
43823;SDS011;29470;53.550;9.926;2023-03-01T12:19:33;10.18;;;5.00;;
43823;SDS011;29470;53.550;9.926;2023-03-01T12:24:48;9.30;;;5.10;;
43823;SDS011;29470;53.550;9.926;2023-03-01T12:30:09;10.00;;;4.80;;
43823;SDS011;29470;53.550;9.926;2023-03-01T12:35:36;8.38;;;4.53;;
43823;SDS011;29470;53.550;9.926;2023-03-01T12:41:17;10.23;;;5.25;;
43823;SDS011;29470;53.550;9.926;2023-03-01T12:46:34;14.63;;;5.93;;
43823;SDS011;29470;53.550;9.926;2023-03-01T12:51:55;10.05;;;5.55;;
43823;SDS011;29470;53.550;9.926;2023-03-01T12:57:02;9.33;;;4.37;;
43823;SDS011;29470;53.550;9.926;2023-03-01T13:02:15;7.93;;;4.40;;
43823;SDS011;29470;53.550;9.926;2023-03-01T13:07:25;8.15;;;4.47;;
43823;SDS011;29470;53.550;9.926;2023-03-01T13:12:46;12.10;;;5.43;;
43823;SDS011;29470;53.550;9.926;2023-03-01T13:17:55;10.80;;;5.35;;
43823;SDS011;29470;53.550;9.926;2023-03-01T13:23:00;8.55;;;5.00;;
43823;SDS011;29470;53.550;9.926;2023-03-01T13:33:45;10.65;;;4.47;;
43823;SDS011;29470;53.550;9.926;2023-03-01T13:38:54;9.38;;;4.75;;
43823;SDS011;29470;53.550;9.926;2023-03-01T13:43:59;8.88;;;4.68;;
43823;SDS011;29470;53.550;9.926;2023-03-01T13:49:03;9.65;;;5.65;;
43823;SDS011;29470;53.550;9.926;2023-03-01T13:54:09;15.38;;;6.50;;
43823;SDS011;29470;53.550;9.926;2023-03-01T13:59:15;11.15;;;5.40;;
43823;SDS011;29470;53.550;9.926;2023-03-01T14:04:22;10.35;;;5.97;;
43823;SDS011;29470;53.550;9.926;2023-03-01T14:09:27;9.65;;;5.55;;
43823;SDS011;29470;53.550;9.926;2023-03-01T14:14:42;11.02;;;5.03;;
43823;SDS011;29470;53.550;9.926;2023-03-01T14:19:54;12.27;;;5.88;;
43823;SDS011;29470;53.550;9.926;2023-03-01T14:25:00;14.95;;;6.32;;
43823;SDS011;29470;53.550;9.926;2023-03-01T14:30:10;11.63;;;5.70;;
43823;SDS011;29470;53.550;9.926;2023-03-01T14:35:20;9.68;;;5.18;;
43823;SDS011;29470;53.550;9.926;2023-03-01T14:40:26;9.95;;;5.10;;
43823;SDS011;29470;53.550;9.926;2023-03-01T14:45:30;11.30;;;5.22;;
43823;SDS011;29470;53.550;9.926;2023-03-01T14:50:35;10.52;;;4.75;;
43823;SDS011;29470;53.550;9.926;2023-03-01T14:55:44;8.35;;;4.78;;
43823;SDS011;29470;53.550;9.926;2023-03-01T15:00:50;10.88;;;4.90;;
43823;SDS011;29470;53.550;9.926;2023-03-01T15:05:56;9.45;;;4.88;;
43823;SDS011;29470;53.550;9.926;2023-03-01T15:11:00;9.68;;;4.88;;
43823;SDS011;29470;53.550;9.926;2023-03-01T15:16:09;10.73;;;5.38;;
43823;SDS011;29470;53.550;9.926;2023-03-01T15:21:17;10.85;;;4.95;;
43823;SDS011;29470;53.550;9.926;2023-03-01T15:26:22;11.82;;;5.78;;
43823;SDS011;29470;53.550;9.926;2023-03-01T15:31:27;9.88;;;5.10;;
43823;SDS011;29470;53.550;9.926;2023-03-01T15:36:39;11.25;;;5.72;;
43823;SDS011;29470;53.550;9.926;2023-03-01T15:41:46;11.43;;;5.72;;
43823;SDS011;29470;53.550;9.926;2023-03-01T15:46:49;12.20;;;6.75;;
43823;SDS011;29470;53.550;9.926;2023-03-01T15:51:54;10.98;;;6.45;;
43823;SDS011;29470;53.550;9.926;2023-03-01T15:56:58;12.15;;;6.35;;
43823;SDS011;29470;53.550;9.926;2023-03-01T16:02:01;12.55;;;6.78;;
43823;SDS011;29470;53.550;9.926;2023-03-01T16:07:05;14.90;;;7.75;;
43823;SDS011;29470;53.550;9.926;2023-03-01T16:12:08;17.58;;;7.75;;
43823;SDS011;29470;53.550;9.926;2023-03-01T16:17:16;20.27;;;8.93;;
43823;SDS011;29470;53.550;9.926;2023-03-01T16:22:20;22.90;;;9.73;;
43823;SDS011;29470;53.550;9.926;2023-03-01T16:27:26;20.60;;;9.30;;
43823;SDS011;29470;53.550;9.926;2023-03-01T16:32:29;17.45;;;9.35;;
43823;SDS011;29470;53.550;9.926;2023-03-01T16:37:34;22.60;;;10.15;;
43823;SDS011;29470;53.550;9.926;2023-03-01T16:42:37;16.70;;;8.32;;
43823;SDS011;29470;53.550;9.926;2023-03-01T16:47:41;15.35;;;8.30;;
43823;SDS011;29470;53.550;9.926;2023-03-01T16:52:46;17.20;;;8.40;;
43823;SDS011;29470;53.550;9.926;2023-03-01T16:57:49;17.83;;;8.15;;
43823;SDS011;29470;53.550;9.926;2023-03-01T17:02:53;18.38;;;7.72;;
43823;SDS011;29470;53.550;9.926;2023-03-01T17:07:57;14.27;;;7.20;;
43823;SDS011;29470;53.550;9.926;2023-03-01T17:13:01;13.32;;;7.53;;
43823;SDS011;29470;53.550;9.926;2023-03-01T17:18:04;13.98;;;7.65;;
43823;SDS011;29470;53.550;9.926;2023-03-01T17:23:08;13.82;;;7.28;;
43823;SDS011;29470;53.550;9.926;2023-03-01T17:28:11;13.30;;;7.28;;
43823;SDS011;29470;53.550;9.926;2023-03-01T17:33:15;12.80;;;7.30;;
43823;SDS011;29470;53.550;9.926;2023-03-01T17:38:19;13.90;;;7.65;;
43823;SDS011;29470;53.550;9.926;2023-03-01T17:43:22;17.10;;;8.15;;
43823;SDS011;29470;53.550;9.926;2023-03-01T17:48:25;16.83;;;8.98;;
43823;SDS011;29470;53.550;9.926;2023-03-01T17:53:29;22.08;;;10.27;;
43823;SDS011;29470;53.550;9.926;2023-03-01T17:58:32;17.05;;;9.30;;
43823;SDS011;29470;53.550;9.926;2023-03-01T18:03:37;17.98;;;10.05;;
43823;SDS011;29470;53.550;9.926;2023-03-01T18:08:41;16.27;;;9.43;;
43823;SDS011;29470;53.550;9.926;2023-03-01T18:13:45;15.20;;;7.25;;
43823;SDS011;29470;53.550;9.926;2023-03-01T18:18:51;13.15;;;7.13;;
43823;SDS011;29470;53.550;9.926;2023-03-01T18:23:57;15.05;;;7.85;;
43823;SDS011;29470;53.550;9.926;2023-03-01T18:29:01;17.15;;;8.82;;
43823;SDS011;29470;53.550;9.926;2023-03-01T18:34:05;16.08;;;8.13;;
43823;SDS011;29470;53.550;9.926;2023-03-01T18:39:09;14.85;;;8.13;;
43823;SDS011;29470;53.550;9.926;2023-03-01T18:44:12;13.60;;;7.93;;
43823;SDS011;29470;53.550;9.926;2023-03-01T18:49:15;18.63;;;8.55;;
43823;SDS011;29470;53.550;9.926;2023-03-01T18:54:19;18.15;;;9.50;;
43823;SDS011;29470;53.550;9.926;2023-03-01T18:59:22;21.02;;;10.65;;
43823;SDS011;29470;53.550;9.926;2023-03-01T19:04:25;19.70;;;10.60;;
43823;SDS011;29470;53.550;9.926;2023-03-01T19:09:29;22.05;;;11.60;;
43823;SDS011;29470;53.550;9.926;2023-03-01T19:14:32;22.75;;;12.02;;
43823;SDS011;29470;53.550;9.926;2023-03-01T19:19:35;23.80;;;11.85;;
43823;SDS011;29470;53.550;9.926;2023-03-01T19:24:41;28.02;;;13.13;;
43823;SDS011;29470;53.550;9.926;2023-03-01T19:29:44;30.17;;;14.35;;
43823;SDS011;29470;53.550;9.926;2023-03-01T19:34:47;31.85;;;14.48;;
43823;SDS011;29470;53.550;9.926;2023-03-01T19:39:51;33.17;;;16.02;;
43823;SDS011;29470;53.550;9.926;2023-03-01T19:44:54;34.25;;;15.57;;
43823;SDS011;29470;53.550;9.926;2023-03-01T19:49:57;38.95;;;17.75;;
43823;SDS011;29470;53.550;9.926;2023-03-01T19:55:01;40.47;;;17.45;;
43823;SDS011;29470;53.550;9.926;2023-03-01T20:00:11;40.08;;;17.13;;
43823;SDS011;29470;53.550;9.926;2023-03-01T20:05:14;41.33;;;17.08;;
43823;SDS011;29470;53.550;9.926;2023-03-01T20:10:19;41.05;;;17.00;;
43823;SDS011;29470;53.550;9.926;2023-03-01T20:15:26;39.58;;;18.08;;
43823;SDS011;29470;53.550;9.926;2023-03-01T20:20:32;45.33;;;18.10;;
43823;SDS011;29470;53.550;9.926;2023-03-01T20:25:38;41.70;;;18.05;;
43823;SDS011;29470;53.550;9.926;2023-03-01T20:30:41;42.00;;;18.55;;
43823;SDS011;29470;53.550;9.926;2023-03-01T20:35:44;45.28;;;18.10;;
43823;SDS011;29470;53.550;9.926;2023-03-01T20:40:48;42.38;;;18.20;;
43823;SDS011;29470;53.550;9.926;2023-03-01T20:45:51;37.55;;;17.00;;
43823;SDS011;29470;53.550;9.926;2023-03-01T20:50:54;41.38;;;18.33;;
43823;SDS011;29470;53.550;9.926;2023-03-01T20:56:04;46.53;;;16.73;;
43823;SDS011;29470;53.550;9.926;2023-03-01T21:01:08;42.22;;;17.50;;
43823;SDS011;29470;53.550;9.926;2023-03-01T21:06:12;40.35;;;16.48;;
43823;SDS011;29470;53.550;9.926;2023-03-01T21:11:16;39.47;;;16.90;;
43823;SDS011;29470;53.550;9.926;2023-03-01T21:16:19;42.40;;;18.30;;
43823;SDS011;29470;53.550;9.926;2023-03-01T21:21:23;39.67;;;17.35;;
43823;SDS011;29470;53.550;9.926;2023-03-01T21:26:27;37.30;;;16.80;;
43823;SDS011;29470;53.550;9.926;2023-03-01T21:31:30;53.00;;;17.25;;
43823;SDS011;29470;53.550;9.926;2023-03-01T21:36:35;35.45;;;16.52;;
43823;SDS011;29470;53.550;9.926;2023-03-01T21:41:39;41.90;;;16.58;;
43823;SDS011;29470;53.550;9.926;2023-03-01T21:46:41;40.17;;;17.40;;
43823;SDS011;29470;53.550;9.926;2023-03-01T21:51:44;38.50;;;17.35;;
43823;SDS011;29470;53.550;9.926;2023-03-01T21:56:48;40.60;;;17.35;;
43823;SDS011;29470;53.550;9.926;2023-03-01T22:01:51;40.38;;;16.73;;
43823;SDS011;29470;53.550;9.926;2023-03-01T22:06:54;36.22;;;16.83;;
43823;SDS011;29470;53.550;9.926;2023-03-01T22:11:58;39.03;;;16.77;;
43823;SDS011;29470;53.550;9.926;2023-03-01T22:17:03;36.97;;;15.38;;
43823;SDS011;29470;53.550;9.926;2023-03-01T22:22:05;36.05;;;15.77;;
43823;SDS011;29470;53.550;9.926;2023-03-01T22:27:10;40.22;;;16.45;;
43823;SDS011;29470;53.550;9.926;2023-03-01T22:32:12;37.78;;;16.33;;
43823;SDS011;29470;53.550;9.926;2023-03-01T22:37:15;37.13;;;16.17;;
43823;SDS011;29470;53.550;9.926;2023-03-01T22:42:19;39.90;;;16.33;;
43823;SDS011;29470;53.550;9.926;2023-03-01T22:47:25;37.75;;;16.27;;
43823;SDS011;29470;53.550;9.926;2023-03-01T22:52:36;37.95;;;16.35;;
43823;SDS011;29470;53.550;9.926;2023-03-01T22:57:41;35.90;;;16.20;;
43823;SDS011;29470;53.550;9.926;2023-03-01T23:02:44;36.17;;;16.17;;
43823;SDS011;29470;53.550;9.926;2023-03-01T23:07:46;39.05;;;15.07;;
43823;SDS011;29470;53.550;9.926;2023-03-01T23:12:52;37.30;;;15.60;;
43823;SDS011;29470;53.550;9.926;2023-03-01T23:17:55;39.58;;;15.63;;
43823;SDS011;29470;53.550;9.926;2023-03-01T23:22:58;34.67;;;14.93;;
43823;SDS011;29470;53.550;9.926;2023-03-01T23:28:03;36.08;;;15.82;;
43823;SDS011;29470;53.550;9.926;2023-03-01T23:33:07;36.13;;;15.50;;
43823;SDS011;29470;53.550;9.926;2023-03-01T23:38:10;37.95;;;15.55;;
43823;SDS011;29470;53.550;9.926;2023-03-01T23:43:14;37.75;;;16.42;;
43823;SDS011;29470;53.550;9.926;2023-03-01T23:48:17;44.67;;;15.50;;
43823;SDS011;29470;53.550;9.926;2023-03-01T23:53:20;34.88;;;15.00;;
43823;SDS011;29470;53.550;9.926;2023-03-01T23:58:25;35.90;;;14.15;;
